Terminal Aerodrome Forecast
Issued by NWS

Home | Current Version | Previous Version | Text Only | Print | Product List | Glossary On
Versions: 1 2 3 4 5 6 7 8 9 10 11 12 13 14 15 16 17 18 19 20 21 22 23 24 25 26 27 28 29 30 31
000
FTUS43 KDMX 181501 AAB
TAFMCW
TAF AMD
KMCW 181501Z 1815/1912 30030G40KT 1/2SM -SN BLSN SCT009 OVC022
      TEMPO 1815/1818 1/4SM BLSN OVC009
     FM181900 30027G39KT 3/4SM BLSN OVC022
     FM182100 30026G38KT 2SM BLSN BKN030
     FM190200 30021G30KT P6SM BKN035=

USA.gov is the U.S. government's official web portal to all federal, state and local government web resources and services.